createdAt,value
2023-04-16T00:02:03.160Z,438.00
2023-04-16T00:06:02.741Z,436.00
2023-04-16T00:10:02.722Z,438.00
2023-04-16T00:14:03.364Z,443.00
2023-04-16T00:18:03.362Z,439.00
2023-04-16T00:22:02.702Z,435.00
2023-04-16T00:26:02.627Z,431.00
2023-04-16T00:30:02.651Z,433.00
2023-04-16T00:34:02.786Z,431.00
2023-04-16T00:38:02.737Z,429.00
2023-04-16T00:42:02.607Z,432.00
2023-04-16T00:46:02.560Z,434.00
2023-04-16T00:50:02.714Z,433.00
2023-04-16T00:54:02.709Z,441.00
2023-04-16T01:11:01.806Z,438.00
2023-04-16T02:02:51.227Z,436.00
2023-04-16T02:06:41.598Z,442.00
2023-04-16T02:10:40.706Z,449.00
2023-04-16T02:14:41.084Z,441.00
2023-04-16T02:18:41.092Z,438.00
2023-04-16T02:22:41.528Z,442.00
2023-04-16T02:26:40.772Z,439.00
2023-04-16T02:30:41.059Z,442.00
2023-04-16T02:34:41.122Z,446.00
2023-04-16T02:38:40.693Z,453.00
2023-04-16T02:42:41.083Z,452.00
2023-04-16T02:46:40.566Z,453.00
2023-04-16T02:50:40.570Z,451.00
2023-04-16T02:58:29.787Z,434.00
2023-04-16T03:02:29.564Z,436.00
2023-04-16T03:06:29.618Z,435.00
2023-04-16T03:10:29.872Z,437.00
2023-04-16T03:14:29.803Z,441.00
2023-04-16T03:18:29.891Z,439.00
2023-04-16T03:22:29.521Z,438.00
2023-04-16T03:26:29.815Z,439.00
2023-04-16T03:30:30.291Z,441.00
2023-04-16T03:34:30.058Z,442.00
2023-04-16T03:38:30.289Z,438.00
2023-04-16T03:42:29.995Z,433.00
2023-04-16T03:46:29.973Z,435.00
2023-04-16T03:55:01.072Z,435.00
2023-04-16T04:07:41.932Z,446.00
2023-04-16T04:11:39.977Z,444.00
2023-04-16T04:15:29.654Z,438.00
2023-04-16T04:19:29.608Z,436.00
2023-04-16T04:23:29.535Z,439.00
2023-04-16T04:27:29.596Z,440.00
2023-04-16T04:31:29.498Z,437.00
2023-04-16T04:35:29.503Z,437.00
2023-04-16T04:39:29.512Z,441.00
2023-04-16T04:43:29.474Z,444.00
2023-04-16T04:47:29.471Z,445.00
2023-04-16T04:51:29.446Z,441.00
2023-04-16T04:55:29.528Z,444.00
2023-04-16T04:59:30.015Z,443.00
2023-04-16T05:03:29.702Z,443.00
2023-04-16T05:07:30.020Z,442.00
2023-04-16T05:11:29.862Z,435.00
2023-04-16T05:15:30.000Z,430.00
2023-04-16T05:19:30.008Z,429.00
2023-04-16T05:23:29.879Z,430.00
2023-04-16T05:27:30.001Z,438.00
2023-04-16T05:31:30.100Z,441.00
2023-04-16T05:35:30.578Z,439.00
2023-04-16T05:39:30.504Z,442.00
2023-04-16T05:43:30.075Z,445.00
2023-04-16T05:47:30.535Z,434.00
2023-04-16T05:51:30.130Z,436.00
2023-04-16T05:55:30.496Z,438.00
2023-04-16T05:59:30.456Z,431.00
2023-04-16T06:03:30.343Z,431.00
2023-04-16T06:07:30.490Z,436.00
2023-04-16T06:11:30.263Z,440.00
2023-04-16T06:15:30.168Z,442.00
2023-04-16T06:19:30.122Z,439.00
2023-04-16T06:23:30.193Z,438.00
2023-04-16T06:27:30.648Z,433.00
2023-04-16T06:31:30.019Z,432.00
2023-04-16T06:35:30.057Z,431.00
2023-04-16T06:39:30.032Z,432.00
2023-04-16T06:43:29.883Z,432.00
2023-04-16T06:47:30.046Z,431.00
2023-04-16T06:51:29.850Z,432.00
2023-04-16T06:55:30.079Z,432.00
2023-04-16T06:59:30.066Z,430.00
2023-04-16T07:03:30.639Z,426.00
2023-04-16T07:07:30.519Z,425.00
2023-04-16T07:11:31.015Z,426.00
2023-04-16T07:15:31.050Z,426.00
2023-04-16T07:19:31.036Z,420.00
2023-04-16T07:23:31.545Z,421.00
2023-04-16T07:27:31.267Z,424.00
2023-04-16T07:31:31.564Z,427.00
2023-04-16T07:35:31.476Z,428.00
2023-04-16T07:39:31.602Z,427.00
2023-04-16T07:43:31.999Z,423.00
2023-04-16T07:47:31.746Z,421.00
2023-04-16T07:51:32.051Z,423.00
2023-04-16T07:55:32.005Z,428.00
2023-04-16T07:59:32.003Z,428.00
2023-04-16T08:03:32.195Z,426.00
2023-04-16T08:07:34.381Z,423.00
2023-04-16T08:11:32.006Z,420.00
2023-04-16T08:15:31.987Z,426.00
2023-04-16T08:19:31.966Z,426.00
2023-04-16T08:23:32.018Z,428.00
2023-04-16T08:27:31.873Z,435.00
2023-04-16T08:31:32.105Z,431.00
2023-04-16T08:35:31.842Z,429.00
2023-04-16T08:39:31.767Z,422.00
2023-04-16T08:43:31.728Z,423.00
2023-04-16T08:47:31.743Z,426.00
2023-04-16T08:51:32.031Z,420.00
2023-04-16T08:55:31.807Z,428.00
2023-04-16T08:59:32.061Z,422.00
2023-04-16T09:03:34.844Z,421.00
2023-04-16T09:07:32.189Z,421.00
2023-04-16T09:15:51.985Z,426.00
2023-04-16T09:19:51.813Z,426.00
2023-04-16T09:23:51.808Z,430.00
2023-04-16T09:27:52.122Z,418.00
2023-04-16T09:31:51.774Z,424.00
2023-04-16T09:35:51.690Z,425.00
2023-04-16T09:40:02.192Z,421.00
2023-04-16T09:43:51.658Z,421.00
2023-04-16T09:47:51.708Z,420.00
2023-04-16T09:51:51.659Z,414.00
2023-04-16T09:55:51.541Z,380.00
2023-04-16T09:59:51.474Z,414.00
2023-04-16T10:03:51.766Z,417.00
2023-04-16T10:07:51.493Z,399.00
2023-04-16T10:11:51.524Z,418.00
2023-04-16T10:15:51.459Z,415.00
2023-04-16T10:19:51.433Z,417.00
2023-04-16T10:28:11.092Z,425.00
2023-04-16T10:32:11.051Z,428.00
2023-04-16T10:36:11.051Z,429.00
2023-04-16T10:40:21.453Z,431.00
2023-04-16T10:44:11.005Z,431.00
2023-04-16T11:01:10.639Z,428.00
2023-04-16T11:05:10.580Z,427.00
2023-04-16T11:09:10.565Z,427.00
2023-04-16T11:13:10.611Z,424.00
2023-04-16T11:30:09.356Z,434.00
2023-04-16T11:34:09.332Z,435.00
2023-04-16T11:38:09.311Z,437.00
2023-04-16T11:46:29.063Z,425.00
2023-04-16T11:50:39.291Z,420.00
2023-04-16T12:11:48.172Z,424.00
2023-04-16T12:15:58.634Z,408.00
2023-04-16T12:19:48.666Z,425.00
2023-04-16T12:23:48.079Z,429.00
2023-04-16T12:27:49.479Z,430.00
2023-04-16T12:31:48.094Z,430.00
2023-04-16T12:35:48.065Z,427.00
2023-04-16T12:39:48.182Z,425.00
2023-04-16T12:43:48.094Z,427.00
2023-04-16T12:47:47.896Z,432.00
2023-04-16T12:51:47.913Z,427.00
2023-04-16T12:55:48.089Z,423.00
2023-04-16T12:59:47.768Z,428.00
2023-04-16T13:16:47.493Z,433.00
2023-04-16T13:20:47.138Z,432.00
2023-04-16T13:24:47.115Z,426.00
2023-04-16T13:33:07.096Z,426.00
2023-04-16T13:41:26.885Z,432.00
2023-04-16T13:45:27.270Z,427.00
2023-04-16T13:49:27.152Z,429.00
2023-04-16T13:53:26.767Z,426.00
2023-04-16T13:57:27.154Z,433.00
2023-04-16T14:01:26.732Z,431.00
2023-04-16T14:05:27.392Z,429.00
2023-04-16T14:09:26.683Z,424.00
2023-04-16T14:13:26.580Z,428.00
2023-04-16T14:17:26.848Z,424.00
2023-04-16T14:21:26.671Z,432.00
2023-04-16T14:25:26.687Z,431.00
2023-04-16T14:29:26.628Z,430.00
2023-04-16T14:33:26.415Z,416.00
2023-04-16T14:37:26.658Z,424.00
2023-04-16T14:41:26.687Z,433.00
2023-04-16T14:45:26.278Z,430.00
2023-04-16T14:49:26.689Z,429.00
2023-04-16T14:53:26.203Z,429.00
2023-04-16T14:57:26.168Z,431.00
2023-04-16T15:01:26.366Z,413.00
2023-04-16T15:05:26.337Z,422.00
2023-04-16T15:09:26.253Z,424.00
2023-04-16T15:13:26.706Z,418.00
2023-04-16T15:17:26.521Z,421.00
2023-04-16T15:21:26.756Z,422.00
2023-04-16T15:25:26.608Z,425.00
2023-04-16T15:29:26.630Z,430.00
2023-04-16T15:33:27.341Z,428.00
2023-04-16T15:37:26.817Z,431.00
2023-04-16T15:41:26.973Z,428.00
2023-04-16T15:45:27.165Z,416.00
2023-04-16T15:49:27.138Z,412.00
2023-04-16T15:53:27.683Z,430.00
2023-04-16T15:57:27.662Z,425.00
2023-04-16T16:01:27.608Z,414.00
2023-04-16T16:05:27.888Z,421.00
2023-04-16T16:09:27.692Z,423.00
2023-04-16T16:13:27.828Z,419.00
2023-04-16T16:26:07.805Z,425.00
2023-04-16T16:30:07.752Z,432.00
2023-04-16T16:34:09.068Z,430.00
2023-04-16T16:38:08.219Z,433.00
2023-04-16T16:42:08.133Z,431.00
2023-04-16T16:46:07.762Z,432.00
2023-04-16T16:50:07.707Z,431.00
2023-04-16T16:54:08.237Z,433.00
2023-04-16T16:58:07.576Z,432.00
2023-04-16T17:02:07.732Z,427.00
2023-04-16T17:06:07.575Z,434.00
2023-04-16T17:10:07.642Z,432.00
2023-04-16T17:14:07.646Z,434.00
2023-04-16T17:18:07.829Z,431.00
2023-04-16T17:22:07.430Z,429.00
2023-04-16T17:34:01.883Z,431.00
2023-04-16T17:37:51.521Z,434.00
2023-04-16T17:41:51.451Z,433.00
2023-04-16T17:50:21.322Z,436.00
2023-04-16T17:54:21.328Z,442.00
2023-04-16T17:58:11.341Z,443.00
2023-04-16T18:09:46.070Z,432.00
2023-04-16T18:20:23.161Z,434.00
2023-04-16T18:34:20.972Z,432.00
2023-04-16T18:48:08.187Z,438.00
2023-04-16T19:21:40.775Z,438.00
2023-04-16T19:39:14.452Z,447.00
2023-04-16T19:51:42.798Z,438.00
2023-04-16T19:56:27.398Z,439.00
2023-04-16T20:00:27.646Z,439.00
2023-04-16T20:17:01.313Z,432.00
2023-04-16T20:27:37.827Z,432.00
2023-04-16T20:31:27.518Z,428.00
2023-04-16T20:35:27.284Z,434.00
2023-04-16T20:39:27.368Z,429.00
2023-04-16T20:43:27.242Z,531.00
2023-04-16T20:47:27.108Z,504.00
2023-04-16T20:51:27.331Z,523.00
2023-04-16T20:55:27.328Z,444.00
2023-04-16T20:59:27.023Z,440.00
2023-04-16T21:12:07.085Z,440.00
2023-04-16T21:16:07.020Z,435.00
2023-04-16T21:20:07.103Z,432.00
2023-04-16T21:24:07.146Z,434.00
2023-04-16T21:28:07.732Z,429.00
2023-04-16T21:32:07.359Z,427.00
2023-04-16T21:36:07.525Z,433.00
2023-04-16T21:40:08.167Z,435.00
2023-04-16T21:44:08.136Z,440.00
2023-04-16T21:48:07.863Z,441.00
2023-04-16T21:52:08.040Z,441.00
2023-04-16T21:56:08.694Z,438.00
2023-04-16T22:00:08.387Z,434.00
2023-04-16T22:04:08.544Z,432.00
2023-04-16T22:08:23.387Z,434.00
2023-04-16T22:12:09.731Z,433.00
2023-04-16T22:16:10.133Z,437.00
2023-04-16T22:20:08.494Z,440.00
2023-04-16T22:24:08.526Z,437.00
2023-04-16T22:28:08.557Z,434.00
2023-04-16T22:32:08.570Z,436.00
2023-04-16T22:36:08.657Z,437.00
2023-04-16T22:40:08.556Z,436.00
2023-04-16T22:44:08.596Z,440.00
2023-04-16T22:48:08.258Z,439.00
2023-04-16T22:52:08.574Z,436.00
2023-04-16T23:00:50.914Z,436.00
2023-04-16T23:04:51.147Z,436.00
2023-04-16T23:09:01.126Z,432.00
2023-04-16T23:12:50.762Z,435.00
2023-04-16T23:16:51.268Z,435.00
2023-04-16T23:32:28.683Z,437.00
2023-04-16T23:36:28.577Z,439.00
2023-04-16T23:40:28.672Z,437.00
2023-04-16T23:44:28.669Z,437.00
2023-04-16T23:48:28.541Z,439.00
2023-04-16T23:52:28.704Z,440.00
2023-04-16T23:56:28.741Z,440.00
